createdAt,value
2023-04-06T16:57:31.003Z,57.10
2023-04-06T17:00:00.584Z,44.90
2023-04-06T17:02:29.233Z,38.60
2023-04-06T17:04:57.344Z,34.40
2023-04-06T17:07:31.404Z,35.20
2023-04-06T17:10:01.119Z,46.10
2023-04-06T17:12:29.755Z,36.70
2023-04-06T17:14:57.599Z,48.90
2023-04-06T17:17:25.423Z,48.10
2023-04-06T17:19:53.339Z,43.20
2023-04-06T17:22:21.642Z,42.70
2023-04-06T17:24:49.821Z,36.10
2023-04-06T17:27:17.656Z,44.00
2023-04-06T17:29:45.542Z,31.50
2023-04-06T17:32:13.696Z,48.40
2023-04-06T17:34:41.425Z,52.60
2023-04-06T17:37:09.714Z,25.90
2023-04-06T17:39:37.546Z,51.70
2023-04-06T17:42:05.456Z,35.10
2023-04-06T17:44:34.109Z,39.10
2023-04-06T17:47:02.588Z,30.70
2023-04-06T17:49:31.652Z,34.10
2023-04-06T17:52:00.122Z,47.90
2023-04-06T17:54:28.075Z,43.30
2023-04-06T17:57:07.672Z,34.70
2023-04-06T17:59:36.008Z,63.60
2023-04-06T18:02:04.555Z,50.60
2023-04-06T18:04:33.121Z,34.50
2023-04-06T18:07:01.079Z,28.10
2023-04-06T18:09:32.269Z,32.30
2023-04-06T18:12:00.072Z,32.20
2023-04-06T18:14:28.157Z,44.00
2023-04-06T18:16:56.199Z,24.50
2023-04-06T18:19:24.374Z,23.10
2023-04-06T18:21:52.199Z,29.10
2023-04-06T18:24:37.415Z,27.70
2023-04-06T18:27:07.896Z,33.10
2023-04-06T18:29:37.040Z,29.50
2023-04-06T18:32:06.557Z,27.00
2023-04-06T18:34:34.344Z,32.00
2023-04-06T18:37:02.449Z,32.30
2023-04-06T18:39:30.523Z,33.90
2023-04-06T18:41:58.721Z,27.10
2023-04-06T18:44:27.141Z,34.00
2023-04-06T18:46:55.677Z,32.40
2023-04-06T18:49:23.755Z,26.20
2023-04-06T18:51:51.633Z,23.90
2023-04-06T18:54:19.588Z,19.30
2023-04-06T18:56:48.521Z,25.10
2023-04-06T18:59:17.543Z,24.90
2023-04-06T19:01:51.191Z,22.20
2023-04-06T19:04:20.239Z,24.10
2023-04-06T19:06:48.451Z,27.60
2023-04-06T19:09:16.252Z,24.80
2023-04-06T19:11:44.146Z,24.00
2023-04-06T19:14:12.284Z,19.80
2023-04-06T19:16:43.800Z,25.60
2023-04-06T19:19:11.719Z,22.80
2023-04-06T19:21:39.430Z,19.20
2023-04-06T19:24:07.725Z,24.90
2023-04-06T19:26:35.663Z,38.00
2023-04-06T19:29:04.289Z,28.50
2023-04-06T19:31:32.598Z,25.30
2023-04-06T19:34:00.360Z,19.70
2023-04-06T19:36:28.539Z,21.00
2023-04-06T19:38:56.654Z,23.00
2023-04-06T19:41:25.511Z,28.10
2023-04-06T19:43:54.318Z,19.50
2023-04-06T19:46:22.466Z,21.00
2023-04-06T19:48:50.332Z,18.40
2023-04-06T19:51:18.259Z,18.30
2023-04-06T19:53:46.253Z,19.30
2023-04-06T19:56:16.349Z,16.50
2023-04-06T19:58:44.207Z,16.40
2023-04-06T20:01:12.259Z,18.60
2023-04-06T20:03:41.146Z,18.40
2023-04-06T20:06:09.058Z,17.40
2023-04-06T20:08:36.850Z,19.90
2023-04-06T20:11:07.690Z,17.70
2023-04-06T20:13:36.856Z,17.60
2023-04-06T20:16:09.969Z,17.40
2023-04-06T20:18:39.513Z,14.90
2023-04-06T20:21:11.352Z,20.10
2023-04-06T20:23:39.817Z,18.20
2023-04-06T20:26:11.222Z,17.30
2023-04-06T20:28:39.647Z,18.00
2023-04-06T20:31:07.453Z,21.10
2023-04-06T20:33:37.525Z,19.00
2023-04-06T20:36:07.482Z,17.40
2023-04-06T20:38:35.875Z,18.00
2023-04-06T20:41:03.815Z,16.80
2023-04-06T20:43:31.910Z,19.40
2023-04-06T20:46:05.347Z,15.50
2023-04-06T20:48:50.556Z,16.60
2023-04-06T20:51:28.389Z,19.30
2023-04-06T20:56:31.031Z,16.10
2023-04-06T20:59:03.183Z,16.10
2023-04-06T21:01:34.653Z,16.20
2023-04-06T21:04:09.052Z,16.80
2023-04-06T21:06:39.221Z,18.70
2023-04-06T21:09:07.457Z,19.20
2023-04-06T21:11:38.648Z,17.20
2023-04-06T21:14:14.052Z,18.90
2023-04-06T21:16:44.786Z,22.60
2023-04-06T21:19:13.029Z,28.00
2023-04-06T21:21:40.964Z,21.30
2023-04-06T21:24:10.654Z,25.00
2023-04-06T21:26:38.624Z,24.50
2023-04-06T21:29:06.366Z,28.30
2023-04-06T21:31:36.590Z,19.60
2023-04-06T21:34:08.526Z,23.80
2023-04-06T21:36:37.064Z,18.40
2023-04-06T21:39:06.122Z,22.80
2023-04-06T21:41:34.266Z,25.60
2023-04-06T21:44:02.132Z,22.30
2023-04-06T21:46:29.936Z,22.60
2023-04-06T21:48:58.670Z,24.10
2023-04-06T21:51:26.511Z,18.00
2023-04-06T21:53:55.378Z,20.00
2023-04-06T21:56:24.681Z,19.10
2023-04-06T21:58:53.209Z,27.90
2023-04-06T22:01:21.641Z,22.70
2023-04-06T22:03:49.741Z,22.00
2023-04-06T22:06:17.701Z,21.80
2023-04-06T22:08:49.327Z,29.40
2023-04-06T22:11:17.818Z,20.80
2023-04-06T22:13:46.865Z,27.30
2023-04-06T22:16:15.608Z,18.40
2023-04-06T22:18:43.397Z,19.70
2023-04-06T22:21:11.189Z,20.90
2023-04-06T22:23:42.730Z,21.50
2023-04-06T22:26:11.923Z,18.70
2023-04-06T22:28:39.703Z,20.90
2023-04-06T22:31:07.515Z,20.70
2023-04-06T22:33:35.290Z,21.00
2023-04-06T22:36:03.170Z,17.20
2023-04-06T22:38:31.462Z,16.60
2023-04-06T22:40:59.754Z,16.90
2023-04-06T22:43:27.538Z,15.60
2023-04-06T22:45:55.355Z,15.30
2023-04-06T22:48:23.089Z,17.00
2023-04-06T22:50:50.879Z,15.50
2023-04-06T22:53:37.772Z,17.30
2023-04-06T22:56:06.042Z,15.70
2023-04-06T22:58:33.803Z,18.10
2023-04-06T23:01:01.668Z,15.80
2023-04-06T23:03:30.037Z,16.50
2023-04-06T23:05:57.982Z,14.80
2023-04-06T23:08:25.870Z,17.60
2023-04-06T23:10:53.609Z,22.10
2023-04-06T23:13:21.684Z,18.50
2023-04-06T23:15:49.647Z,19.20
2023-04-06T23:18:17.955Z,21.80
2023-04-06T23:20:46.082Z,26.70
2023-04-06T23:23:13.848Z,20.90
2023-04-06T23:25:41.743Z,19.30
2023-04-06T23:28:09.504Z,17.10
2023-04-06T23:30:37.312Z,17.60
2023-04-06T23:33:05.666Z,15.50
2023-04-06T23:35:33.487Z,16.90
2023-04-06T23:38:01.304Z,16.60
2023-04-06T23:40:29.122Z,17.20
2023-04-06T23:42:56.945Z,21.80
2023-04-06T23:45:24.828Z,15.90
2023-04-06T23:47:53.113Z,16.10
2023-04-06T23:50:21.144Z,16.40
2023-04-06T23:52:48.867Z,17.00
2023-04-06T23:55:17.342Z,16.80
2023-04-06T23:57:45.073Z,18.80
